sensor_id;sensor_type;location;lat;lon;timestamp;P1;durP1;ratioP1;P2;durP2;ratioP2
76336;SDS011;65157;50.082;18.178;2023-11-21T00:02:21;18.00;;;10.60;;
76336;SDS011;65157;50.082;18.178;2023-11-21T00:04:48;18.70;;;10.50;;
76336;SDS011;65157;50.082;18.178;2023-11-21T00:07:15;15.30;;;9.50;;
76336;SDS011;65157;50.082;18.178;2023-11-21T00:09:41;20.80;;;11.00;;
76336;SDS011;65157;50.082;18.178;2023-11-21T00:12:08;16.40;;;11.10;;
76336;SDS011;65157;50.082;18.178;2023-11-21T00:14:35;20.30;;;13.80;;
76336;SDS011;65157;50.082;18.178;2023-11-21T00:17:02;28.90;;;14.30;;
76336;SDS011;65157;50.082;18.178;2023-11-21T00:19:29;25.30;;;13.20;;
76336;SDS011;65157;50.082;18.178;2023-11-21T00:21:56;22.00;;;13.20;;
76336;SDS011;65157;50.082;18.178;2023-11-21T00:24:23;21.70;;;12.00;;
76336;SDS011;65157;50.082;18.178;2023-11-21T00:26:50;17.10;;;11.70;;
76336;SDS011;65157;50.082;18.178;2023-11-21T00:29:17;19.00;;;11.30;;
76336;SDS011;65157;50.082;18.178;2023-11-21T00:31:44;21.20;;;12.40;;
76336;SDS011;65157;50.082;18.178;2023-11-21T00:34:11;21.70;;;13.20;;
76336;SDS011;65157;50.082;18.178;2023-11-21T00:36:39;19.70;;;11.90;;
76336;SDS011;65157;50.082;18.178;2023-11-21T00:39:07;18.00;;;10.80;;
76336;SDS011;65157;50.082;18.178;2023-11-21T00:41:34;20.80;;;11.30;;
76336;SDS011;65157;50.082;18.178;2023-11-21T00:44:00;19.30;;;10.60;;
76336;SDS011;65157;50.082;18.178;2023-11-21T00:46:27;19.30;;;10.00;;
76336;SDS011;65157;50.082;18.178;2023-11-21T00:48:54;16.60;;;10.70;;
76336;SDS011;65157;50.082;18.178;2023-11-21T00:51:21;18.80;;;9.00;;
76336;SDS011;65157;50.082;18.178;2023-11-21T00:53:48;14.40;;;8.90;;
76336;SDS011;65157;50.082;18.178;2023-11-21T00:56:15;17.30;;;9.90;;
76336;SDS011;65157;50.082;18.178;2023-11-21T00:58:41;20.10;;;9.30;;
76336;SDS011;65157;50.082;18.178;2023-11-21T01:01:08;16.80;;;9.40;;
76336;SDS011;65157;50.082;18.178;2023-11-21T01:03:34;18.50;;;8.80;;
76336;SDS011;65157;50.082;18.178;2023-11-21T01:06:01;17.90;;;9.70;;
76336;SDS011;65157;50.082;18.178;2023-11-21T01:08:28;20.20;;;9.70;;
76336;SDS011;65157;50.082;18.178;2023-11-21T01:10:55;17.60;;;9.80;;
76336;SDS011;65157;50.082;18.178;2023-11-21T01:13:21;19.10;;;10.60;;
76336;SDS011;65157;50.082;18.178;2023-11-21T01:15:48;16.40;;;9.60;;
76336;SDS011;65157;50.082;18.178;2023-11-21T01:18:15;19.20;;;10.00;;
76336;SDS011;65157;50.082;18.178;2023-11-21T01:20:42;16.30;;;8.90;;
76336;SDS011;65157;50.082;18.178;2023-11-21T01:23:09;17.70;;;10.70;;
76336;SDS011;65157;50.082;18.178;2023-11-21T01:25:36;16.40;;;8.90;;
76336;SDS011;65157;50.082;18.178;2023-11-21T01:28:02;17.70;;;9.60;;
76336;SDS011;65157;50.082;18.178;2023-11-21T01:30:29;19.20;;;9.70;;
76336;SDS011;65157;50.082;18.178;2023-11-21T01:32:56;14.80;;;8.70;;
76336;SDS011;65157;50.082;18.178;2023-11-21T01:35:22;15.30;;;9.90;;
76336;SDS011;65157;50.082;18.178;2023-11-21T01:37:49;11.60;;;7.20;;
76336;SDS011;65157;50.082;18.178;2023-11-21T01:40:15;14.90;;;7.90;;
76336;SDS011;65157;50.082;18.178;2023-11-21T01:42:42;14.40;;;7.70;;
76336;SDS011;65157;50.082;18.178;2023-11-21T01:45:09;12.90;;;7.60;;
76336;SDS011;65157;50.082;18.178;2023-11-21T01:47:37;13.80;;;7.90;;
76336;SDS011;65157;50.082;18.178;2023-11-21T01:50:04;11.50;;;7.20;;
76336;SDS011;65157;50.082;18.178;2023-11-21T01:52:34;14.50;;;7.80;;
76336;SDS011;65157;50.082;18.178;2023-11-21T01:55:02;14.00;;;8.40;;
76336;SDS011;65157;50.082;18.178;2023-11-21T01:57:29;12.30;;;7.80;;
76336;SDS011;65157;50.082;18.178;2023-11-21T01:59:55;12.10;;;9.10;;
76336;SDS011;65157;50.082;18.178;2023-11-21T02:02:24;11.80;;;7.60;;
76336;SDS011;65157;50.082;18.178;2023-11-21T02:04:51;13.50;;;8.10;;
76336;SDS011;65157;50.082;18.178;2023-11-21T02:07:18;12.00;;;8.40;;
76336;SDS011;65157;50.082;18.178;2023-11-21T02:09:44;10.40;;;7.30;;
76336;SDS011;65157;50.082;18.178;2023-11-21T02:12:11;12.60;;;7.70;;
76336;SDS011;65157;50.082;18.178;2023-11-21T02:14:37;11.10;;;7.20;;
76336;SDS011;65157;50.082;18.178;2023-11-21T02:17:04;11.60;;;7.00;;
76336;SDS011;65157;50.082;18.178;2023-11-21T02:19:31;9.40;;;6.10;;
76336;SDS011;65157;50.082;18.178;2023-11-21T02:21:57;10.60;;;6.80;;
76336;SDS011;65157;50.082;18.178;2023-11-21T02:24:26;10.30;;;6.30;;
76336;SDS011;65157;50.082;18.178;2023-11-21T02:26:53;10.60;;;5.40;;
76336;SDS011;65157;50.082;18.178;2023-11-21T02:29:20;7.50;;;5.40;;
76336;SDS011;65157;50.082;18.178;2023-11-21T02:31:50;7.00;;;4.60;;
76336;SDS011;65157;50.082;18.178;2023-11-21T02:34:18;5.80;;;4.40;;
76336;SDS011;65157;50.082;18.178;2023-11-21T02:36:45;7.00;;;4.10;;
76336;SDS011;65157;50.082;18.178;2023-11-21T02:39:11;8.40;;;5.70;;
76336;SDS011;65157;50.082;18.178;2023-11-21T02:41:38;6.60;;;5.00;;
76336;SDS011;65157;50.082;18.178;2023-11-21T02:44:05;5.70;;;4.40;;
76336;SDS011;65157;50.082;18.178;2023-11-21T02:46:33;7.90;;;4.60;;
76336;SDS011;65157;50.082;18.178;2023-11-21T02:49:01;6.00;;;4.50;;
76336;SDS011;65157;50.082;18.178;2023-11-21T02:51:28;8.10;;;5.50;;
76336;SDS011;65157;50.082;18.178;2023-11-21T02:53:55;5.40;;;4.10;;
76336;SDS011;65157;50.082;18.178;2023-11-21T02:56:22;6.60;;;4.60;;
76336;SDS011;65157;50.082;18.178;2023-11-21T02:58:49;6.80;;;4.40;;
76336;SDS011;65157;50.082;18.178;2023-11-21T03:01:16;5.60;;;4.70;;
76336;SDS011;65157;50.082;18.178;2023-11-21T03:03:42;8.20;;;5.30;;
76336;SDS011;65157;50.082;18.178;2023-11-21T03:06:09;6.00;;;4.30;;
76336;SDS011;65157;50.082;18.178;2023-11-21T03:08:35;6.00;;;4.30;;
76336;SDS011;65157;50.082;18.178;2023-11-21T03:11:02;6.60;;;4.50;;
76336;SDS011;65157;50.082;18.178;2023-11-21T03:13:29;5.40;;;4.90;;
76336;SDS011;65157;50.082;18.178;2023-11-21T03:15:55;6.20;;;4.90;;
76336;SDS011;65157;50.082;18.178;2023-11-21T03:18:22;5.30;;;4.30;;
76336;SDS011;65157;50.082;18.178;2023-11-21T03:20:49;6.50;;;5.10;;
76336;SDS011;65157;50.082;18.178;2023-11-21T03:23:15;5.30;;;4.70;;
76336;SDS011;65157;50.082;18.178;2023-11-21T03:25:42;6.80;;;5.00;;
76336;SDS011;65157;50.082;18.178;2023-11-21T03:28:08;5.80;;;5.00;;
76336;SDS011;65157;50.082;18.178;2023-11-21T03:30:35;6.40;;;5.10;;
76336;SDS011;65157;50.082;18.178;2023-11-21T03:33:02;8.00;;;5.90;;
76336;SDS011;65157;50.082;18.178;2023-11-21T03:35:28;7.50;;;5.40;;
76336;SDS011;65157;50.082;18.178;2023-11-21T03:37:55;6.10;;;4.80;;
76336;SDS011;65157;50.082;18.178;2023-11-21T03:40:21;6.30;;;4.50;;
76336;SDS011;65157;50.082;18.178;2023-11-21T03:42:48;6.00;;;4.20;;
76336;SDS011;65157;50.082;18.178;2023-11-21T03:45:15;5.20;;;4.50;;
76336;SDS011;65157;50.082;18.178;2023-11-21T03:47:42;7.30;;;4.80;;
76336;SDS011;65157;50.082;18.178;2023-11-21T03:50:08;5.20;;;4.20;;
76336;SDS011;65157;50.082;18.178;2023-11-21T03:52:35;5.50;;;4.90;;
76336;SDS011;65157;50.082;18.178;2023-11-21T03:55:03;5.70;;;4.20;;
76336;SDS011;65157;50.082;18.178;2023-11-21T03:57:30;4.80;;;3.90;;
76336;SDS011;65157;50.082;18.178;2023-11-21T03:59:56;5.00;;;4.20;;
76336;SDS011;65157;50.082;18.178;2023-11-21T04:02:23;6.60;;;4.10;;
76336;SDS011;65157;50.082;18.178;2023-11-21T04:04:50;5.20;;;4.00;;
76336;SDS011;65157;50.082;18.178;2023-11-21T04:07:16;4.30;;;3.90;;
76336;SDS011;65157;50.082;18.178;2023-11-21T04:09:43;5.40;;;4.50;;
76336;SDS011;65157;50.082;18.178;2023-11-21T04:12:09;6.70;;;4.30;;
76336;SDS011;65157;50.082;18.178;2023-11-21T04:14:36;5.50;;;4.30;;
76336;SDS011;65157;50.082;18.178;2023-11-21T04:17:03;7.50;;;4.80;;
76336;SDS011;65157;50.082;18.178;2023-11-21T04:19:29;9.00;;;5.00;;
76336;SDS011;65157;50.082;18.178;2023-11-21T04:21:56;7.10;;;4.90;;
76336;SDS011;65157;50.082;18.178;2023-11-21T04:24:23;5.70;;;4.80;;
76336;SDS011;65157;50.082;18.178;2023-11-21T04:26:49;8.30;;;5.90;;
76336;SDS011;65157;50.082;18.178;2023-11-21T04:29:16;10.50;;;6.50;;
76336;SDS011;65157;50.082;18.178;2023-11-21T04:31:42;7.70;;;5.50;;
76336;SDS011;65157;50.082;18.178;2023-11-21T04:34:09;8.90;;;6.10;;
76336;SDS011;65157;50.082;18.178;2023-11-21T04:36:36;9.90;;;5.50;;
76336;SDS011;65157;50.082;18.178;2023-11-21T04:41:29;6.60;;;5.80;;
76336;SDS011;65157;50.082;18.178;2023-11-21T04:43:56;10.00;;;5.80;;
76336;SDS011;65157;50.082;18.178;2023-11-21T04:46:23;7.30;;;4.90;;
76336;SDS011;65157;50.082;18.178;2023-11-21T04:48:49;7.90;;;5.60;;
76336;SDS011;65157;50.082;18.178;2023-11-21T04:51:16;8.70;;;5.30;;
76336;SDS011;65157;50.082;18.178;2023-11-21T04:53:43;5.80;;;4.40;;
76336;SDS011;65157;50.082;18.178;2023-11-21T04:56:09;10.20;;;5.60;;
76336;SDS011;65157;50.082;18.178;2023-11-21T04:58:36;7.70;;;5.40;;
76336;SDS011;65157;50.082;18.178;2023-11-21T05:01:02;8.70;;;5.30;;
76336;SDS011;65157;50.082;18.178;2023-11-21T05:03:29;10.10;;;6.30;;
76336;SDS011;65157;50.082;18.178;2023-11-21T05:05:56;8.70;;;5.60;;
76336;SDS011;65157;50.082;18.178;2023-11-21T05:08:22;10.90;;;6.10;;
76336;SDS011;65157;50.082;18.178;2023-11-21T05:10:49;11.50;;;6.90;;
76336;SDS011;65157;50.082;18.178;2023-11-21T05:13:15;8.60;;;5.20;;
76336;SDS011;65157;50.082;18.178;2023-11-21T05:15:42;11.20;;;6.20;;
76336;SDS011;65157;50.082;18.178;2023-11-21T05:18:09;8.00;;;6.60;;
76336;SDS011;65157;50.082;18.178;2023-11-21T05:20:35;10.80;;;5.60;;
76336;SDS011;65157;50.082;18.178;2023-11-21T05:23:02;8.00;;;5.70;;
76336;SDS011;65157;50.082;18.178;2023-11-21T05:25:31;8.70;;;5.80;;
76336;SDS011;65157;50.082;18.178;2023-11-21T05:27:57;9.10;;;5.40;;
76336;SDS011;65157;50.082;18.178;2023-11-21T05:30:24;14.00;;;7.80;;
76336;SDS011;65157;50.082;18.178;2023-11-21T05:32:50;43.70;;;16.40;;
76336;SDS011;65157;50.082;18.178;2023-11-21T05:35:17;56.10;;;19.90;;
76336;SDS011;65157;50.082;18.178;2023-11-21T05:37:44;83.90;;;30.60;;
76336;SDS011;65157;50.082;18.178;2023-11-21T05:40:12;69.60;;;27.20;;
76336;SDS011;65157;50.082;18.178;2023-11-21T05:42:39;31.10;;;13.50;;
76336;SDS011;65157;50.082;18.178;2023-11-21T05:45:07;20.10;;;10.80;;
76336;SDS011;65157;50.082;18.178;2023-11-21T05:47:34;12.90;;;8.50;;
76336;SDS011;65157;50.082;18.178;2023-11-21T05:50:02;10.30;;;7.40;;
76336;SDS011;65157;50.082;18.178;2023-11-21T05:52:30;8.30;;;6.00;;
76336;SDS011;65157;50.082;18.178;2023-11-21T05:54:57;9.70;;;6.60;;
76336;SDS011;65157;50.082;18.178;2023-11-21T05:57:24;7.40;;;5.70;;
76336;SDS011;65157;50.082;18.178;2023-11-21T05:59:52;8.20;;;5.80;;
76336;SDS011;65157;50.082;18.178;2023-11-21T06:02:18;7.80;;;6.60;;
76336;SDS011;65157;50.082;18.178;2023-11-21T06:04:45;8.20;;;5.90;;
76336;SDS011;65157;50.082;18.178;2023-11-21T06:07:12;7.50;;;6.00;;
76336;SDS011;65157;50.082;18.178;2023-11-21T06:09:38;7.10;;;5.50;;
76336;SDS011;65157;50.082;18.178;2023-11-21T06:12:05;7.90;;;6.40;;
76336;SDS011;65157;50.082;18.178;2023-11-21T06:14:33;11.50;;;7.60;;
76336;SDS011;65157;50.082;18.178;2023-11-21T06:17:00;14.20;;;8.50;;
76336;SDS011;65157;50.082;18.178;2023-11-21T06:19:26;13.00;;;9.30;;
76336;SDS011;65157;50.082;18.178;2023-11-21T06:21:53;13.10;;;8.90;;
76336;SDS011;65157;50.082;18.178;2023-11-21T06:24:20;12.40;;;8.80;;
76336;SDS011;65157;50.082;18.178;2023-11-21T06:26:47;12.30;;;9.10;;
76336;SDS011;65157;50.082;18.178;2023-11-21T06:29:13;15.00;;;11.20;;
76336;SDS011;65157;50.082;18.178;2023-11-21T06:31:43;15.10;;;10.50;;
76336;SDS011;65157;50.082;18.178;2023-11-21T06:34:09;14.00;;;11.10;;
76336;SDS011;65157;50.082;18.178;2023-11-21T06:36:36;11.50;;;8.20;;
76336;SDS011;65157;50.082;18.178;2023-11-21T06:39:02;8.80;;;7.50;;
76336;SDS011;65157;50.082;18.178;2023-11-21T06:41:29;9.00;;;6.40;;
76336;SDS011;65157;50.082;18.178;2023-11-21T06:43:56;9.90;;;7.50;;
76336;SDS011;65157;50.082;18.178;2023-11-21T06:46:23;11.80;;;7.20;;
76336;SDS011;65157;50.082;18.178;2023-11-21T06:48:50;9.40;;;7.00;;
76336;SDS011;65157;50.082;18.178;2023-11-21T06:51:18;9.90;;;6.30;;
76336;SDS011;65157;50.082;18.178;2023-11-21T06:53:44;11.90;;;7.50;;
76336;SDS011;65157;50.082;18.178;2023-11-21T06:56:17;10.40;;;8.00;;
76336;SDS011;65157;50.082;18.178;2023-11-21T06:58:45;9.90;;;7.10;;
76336;SDS011;65157;50.082;18.178;2023-11-21T07:01:12;9.70;;;7.10;;
76336;SDS011;65157;50.082;18.178;2023-11-21T07:03:40;9.70;;;6.90;;
76336;SDS011;65157;50.082;18.178;2023-11-21T07:06:07;11.70;;;7.30;;
76336;SDS011;65157;50.082;18.178;2023-11-21T07:08:35;10.40;;;7.30;;
76336;SDS011;65157;50.082;18.178;2023-11-21T07:11:04;13.60;;;7.10;;
76336;SDS011;65157;50.082;18.178;2023-11-21T07:13:31;9.60;;;7.10;;
76336;SDS011;65157;50.082;18.178;2023-11-21T07:15:58;15.80;;;10.00;;
76336;SDS011;65157;50.082;18.178;2023-11-21T07:18:25;17.90;;;11.90;;
76336;SDS011;65157;50.082;18.178;2023-11-21T07:20:52;12.30;;;8.40;;
76336;SDS011;65157;50.082;18.178;2023-11-21T07:23:18;13.90;;;8.70;;
76336;SDS011;65157;50.082;18.178;2023-11-21T07:25:45;14.50;;;8.70;;
76336;SDS011;65157;50.082;18.178;2023-11-21T07:28:12;14.20;;;9.10;;
76336;SDS011;65157;50.082;18.178;2023-11-21T07:30:38;14.30;;;9.80;;
76336;SDS011;65157;50.082;18.178;2023-11-21T07:33:05;18.20;;;11.40;;
76336;SDS011;65157;50.082;18.178;2023-11-21T07:35:31;19.20;;;10.90;;
76336;SDS011;65157;50.082;18.178;2023-11-21T07:37:58;20.10;;;10.90;;
76336;SDS011;65157;50.082;18.178;2023-11-21T07:40:27;21.50;;;13.50;;
76336;SDS011;65157;50.082;18.178;2023-11-21T07:42:54;21.50;;;14.60;;
76336;SDS011;65157;50.082;18.178;2023-11-21T07:45:21;20.60;;;12.80;;
76336;SDS011;65157;50.082;18.178;2023-11-21T07:47:48;21.80;;;13.50;;
76336;SDS011;65157;50.082;18.178;2023-11-21T07:50:14;23.50;;;13.20;;
76336;SDS011;65157;50.082;18.178;2023-11-21T07:52:41;21.20;;;12.70;;
76336;SDS011;65157;50.082;18.178;2023-11-21T07:55:09;23.20;;;11.30;;
76336;SDS011;65157;50.082;18.178;2023-11-21T07:57:35;19.90;;;11.70;;
76336;SDS011;65157;50.082;18.178;2023-11-21T08:00:02;22.90;;;13.80;;
76336;SDS011;65157;50.082;18.178;2023-11-21T08:02:30;17.40;;;10.40;;
76336;SDS011;65157;50.082;18.178;2023-11-21T08:04:57;17.20;;;10.30;;
76336;SDS011;65157;50.082;18.178;2023-11-21T08:07:23;16.90;;;10.90;;
76336;SDS011;65157;50.082;18.178;2023-11-21T08:09:50;15.00;;;8.80;;
76336;SDS011;65157;50.082;18.178;2023-11-21T08:12:17;13.20;;;8.40;;
76336;SDS011;65157;50.082;18.178;2023-11-21T08:14:51;14.20;;;9.50;;
76336;SDS011;65157;50.082;18.178;2023-11-21T08:17:17;16.60;;;9.60;;
76336;SDS011;65157;50.082;18.178;2023-11-21T08:19:44;16.10;;;10.10;;
76336;SDS011;65157;50.082;18.178;2023-11-21T08:22:10;18.30;;;11.60;;
76336;SDS011;65157;50.082;18.178;2023-11-21T08:24:37;15.40;;;11.30;;
76336;SDS011;65157;50.082;18.178;2023-11-21T08:27:03;17.80;;;10.90;;
76336;SDS011;65157;50.082;18.178;2023-11-21T08:29:30;15.70;;;10.40;;
76336;SDS011;65157;50.082;18.178;2023-11-21T08:31:57;16.50;;;10.90;;
76336;SDS011;65157;50.082;18.178;2023-11-21T08:34:24;16.40;;;9.30;;
76336;SDS011;65157;50.082;18.178;2023-11-21T08:36:51;17.80;;;10.30;;
76336;SDS011;65157;50.082;18.178;2023-11-21T08:39:17;17.10;;;10.90;;
76336;SDS011;65157;50.082;18.178;2023-11-21T08:41:44;16.50;;;9.80;;
76336;SDS011;65157;50.082;18.178;2023-11-21T08:44:10;18.50;;;10.80;;
76336;SDS011;65157;50.082;18.178;2023-11-21T08:46:37;20.90;;;12.80;;
76336;SDS011;65157;50.082;18.178;2023-11-21T08:49:04;19.10;;;12.30;;
76336;SDS011;65157;50.082;18.178;2023-11-21T08:51:31;19.10;;;13.10;;
76336;SDS011;65157;50.082;18.178;2023-11-21T08:53:57;18.70;;;12.20;;
76336;SDS011;65157;50.082;18.178;2023-11-21T08:56:24;20.00;;;13.20;;
76336;SDS011;65157;50.082;18.178;2023-11-21T08:58:51;20.10;;;12.90;;
76336;SDS011;65157;50.082;18.178;2023-11-21T09:01:17;18.50;;;12.10;;
76336;SDS011;65157;50.082;18.178;2023-11-21T09:03:45;20.10;;;12.30;;
76336;SDS011;65157;50.082;18.178;2023-11-21T09:06:12;13.80;;;9.70;;
76336;SDS011;65157;50.082;18.178;2023-11-21T09:08:39;15.50;;;10.50;;
76336;SDS011;65157;50.082;18.178;2023-11-21T09:11:05;15.60;;;11.50;;
76336;SDS011;65157;50.082;18.178;2023-11-21T09:13:32;18.30;;;10.10;;
76336;SDS011;65157;50.082;18.178;2023-11-21T09:16:01;10.50;;;8.10;;
76336;SDS011;65157;50.082;18.178;2023-11-21T09:18:27;11.80;;;8.20;;
76336;SDS011;65157;50.082;18.178;2023-11-21T09:20:54;13.70;;;10.80;;
76336;SDS011;65157;50.082;18.178;2023-11-21T09:23:21;12.80;;;8.10;;
76336;SDS011;65157;50.082;18.178;2023-11-21T09:25:47;9.90;;;6.20;;
76336;SDS011;65157;50.082;18.178;2023-11-21T09:28:14;8.10;;;5.10;;
76336;SDS011;65157;50.082;18.178;2023-11-21T09:30:40;9.60;;;4.80;;
76336;SDS011;65157;50.082;18.178;2023-11-21T09:33:08;7.90;;;5.50;;
76336;SDS011;65157;50.082;18.178;2023-11-21T09:35:38;10.80;;;4.90;;
76336;SDS011;65157;50.082;18.178;2023-11-21T09:38:05;8.30;;;5.10;;
76336;SDS011;65157;50.082;18.178;2023-11-21T09:40:32;6.70;;;4.60;;
76336;SDS011;65157;50.082;18.178;2023-11-21T09:42:59;7.10;;;5.10;;
76336;SDS011;65157;50.082;18.178;2023-11-21T09:45:38;7.00;;;4.40;;
76336;SDS011;65157;50.082;18.178;2023-11-21T09:48:05;7.10;;;5.20;;
76336;SDS011;65157;50.082;18.178;2023-11-21T09:50:34;7.00;;;4.70;;
76336;SDS011;65157;50.082;18.178;2023-11-21T09:53:24;5.80;;;3.40;;
76336;SDS011;65157;50.082;18.178;2023-11-21T09:55:52;9.30;;;4.30;;
76336;SDS011;65157;50.082;18.178;2023-11-21T09:58:19;8.90;;;4.50;;
76336;SDS011;65157;50.082;18.178;2023-11-21T10:00:47;8.80;;;5.50;;
76336;SDS011;65157;50.082;18.178;2023-11-21T10:03:15;9.40;;;4.20;;
76336;SDS011;65157;50.082;18.178;2023-11-21T10:05:42;7.00;;;4.80;;
76336;SDS011;65157;50.082;18.178;2023-11-21T10:08:11;7.50;;;4.70;;
76336;SDS011;65157;50.082;18.178;2023-11-21T10:10:44;7.90;;;4.50;;
76336;SDS011;65157;50.082;18.178;2023-11-21T10:13:12;7.00;;;4.30;;
76336;SDS011;65157;50.082;18.178;2023-11-21T10:15:41;8.00;;;4.90;;
76336;SDS011;65157;50.082;18.178;2023-11-21T10:18:08;10.40;;;5.30;;
76336;SDS011;65157;50.082;18.178;2023-11-21T10:20:36;9.10;;;6.10;;
76336;SDS011;65157;50.082;18.178;2023-11-21T10:23:04;8.60;;;4.70;;
76336;SDS011;65157;50.082;18.178;2023-11-21T10:25:31;9.10;;;4.60;;
76336;SDS011;65157;50.082;18.178;2023-11-21T10:27:58;8.60;;;5.20;;
76336;SDS011;65157;50.082;18.178;2023-11-21T10:30:31;8.60;;;4.60;;
76336;SDS011;65157;50.082;18.178;2023-11-21T10:32:59;10.60;;;4.80;;
76336;SDS011;65157;50.082;18.178;2023-11-21T10:35:26;10.30;;;4.40;;
76336;SDS011;65157;50.082;18.178;2023-11-21T10:38:05;8.30;;;4.30;;
76336;SDS011;65157;50.082;18.178;2023-11-21T10:40:32;10.70;;;5.00;;
76336;SDS011;65157;50.082;18.178;2023-11-21T10:43:08;11.30;;;5.10;;
76336;SDS011;65157;50.082;18.178;2023-11-21T10:45:36;9.50;;;5.20;;
76336;SDS011;65157;50.082;18.178;2023-11-21T10:48:07;8.50;;;5.30;;
76336;SDS011;65157;50.082;18.178;2023-11-21T10:50:35;9.20;;;4.50;;
76336;SDS011;65157;50.082;18.178;2023-11-21T10:55:29;10.20;;;5.10;;
76336;SDS011;65157;50.082;18.178;2023-11-21T10:57:56;6.90;;;4.10;;
76336;SDS011;65157;50.082;18.178;2023-11-21T11:00:26;6.10;;;3.80;;
76336;SDS011;65157;50.082;18.178;2023-11-21T11:02:54;6.40;;;3.90;;
76336;SDS011;65157;50.082;18.178;2023-11-21T11:05:21;6.70;;;4.10;;
76336;SDS011;65157;50.082;18.178;2023-11-21T11:07:50;7.40;;;4.20;;
76336;SDS011;65157;50.082;18.178;2023-11-21T11:10:18;5.00;;;4.20;;
76336;SDS011;65157;50.082;18.178;2023-11-21T11:12:45;11.10;;;7.40;;
76336;SDS011;65157;50.082;18.178;2023-11-21T11:15:17;10.40;;;5.80;;
76336;SDS011;65157;50.082;18.178;2023-11-21T11:17:45;8.00;;;4.60;;
76336;SDS011;65157;50.082;18.178;2023-11-21T11:20:12;8.30;;;5.40;;
76336;SDS011;65157;50.082;18.178;2023-11-21T11:22:45;6.10;;;3.80;;
76336;SDS011;65157;50.082;18.178;2023-11-21T11:25:27;7.20;;;3.70;;
76336;SDS011;65157;50.082;18.178;2023-11-21T11:28:04;6.80;;;3.00;;
76336;SDS011;65157;50.082;18.178;2023-11-21T11:30:48;3.90;;;2.70;;
76336;SDS011;65157;50.082;18.178;2023-11-21T11:38:32;6.50;;;4.40;;
76336;SDS011;65157;50.082;18.178;2023-11-21T11:41:01;8.70;;;4.70;;
76336;SDS011;65157;50.082;18.178;2023-11-21T11:43:29;8.90;;;4.80;;
76336;SDS011;65157;50.082;18.178;2023-11-21T11:45:56;7.00;;;5.30;;
76336;SDS011;65157;50.082;18.178;2023-11-21T11:48:27;10.90;;;5.20;;
76336;SDS011;65157;50.082;18.178;2023-11-21T11:53:37;8.00;;;5.50;;
76336;SDS011;65157;50.082;18.178;2023-11-21T11:58:58;5.20;;;3.10;;
76336;SDS011;65157;50.082;18.178;2023-11-21T12:01:26;5.30;;;3.10;;
76336;SDS011;65157;50.082;18.178;2023-11-21T12:06:38;9.20;;;5.40;;
76336;SDS011;65157;50.082;18.178;2023-11-21T12:09:05;14.60;;;6.80;;
76336;SDS011;65157;50.082;18.178;2023-11-21T12:11:34;12.00;;;5.20;;
76336;SDS011;65157;50.082;18.178;2023-11-21T12:14:03;26.60;;;9.80;;
76336;SDS011;65157;50.082;18.178;2023-11-21T12:16:32;35.60;;;12.50;;
76336;SDS011;65157;50.082;18.178;2023-11-21T12:18:59;37.80;;;12.50;;
76336;SDS011;65157;50.082;18.178;2023-11-21T12:21:26;19.70;;;8.30;;
76336;SDS011;65157;50.082;18.178;2023-11-21T12:23:54;10.90;;;6.00;;
76336;SDS011;65157;50.082;18.178;2023-11-21T12:26:23;10.10;;;5.70;;
76336;SDS011;65157;50.082;18.178;2023-11-21T12:28:54;5.80;;;4.50;;
76336;SDS011;65157;50.082;18.178;2023-11-21T12:31:21;5.90;;;3.90;;
76336;SDS011;65157;50.082;18.178;2023-11-21T12:33:50;6.70;;;4.50;;
76336;SDS011;65157;50.082;18.178;2023-11-21T12:36:18;4.80;;;3.60;;
76336;SDS011;65157;50.082;18.178;2023-11-21T12:38:45;5.80;;;3.40;;
76336;SDS011;65157;50.082;18.178;2023-11-21T12:41:11;5.70;;;3.80;;
76336;SDS011;65157;50.082;18.178;2023-11-21T12:43:38;4.90;;;4.40;;
76336;SDS011;65157;50.082;18.178;2023-11-21T12:46:08;7.10;;;4.20;;
76336;SDS011;65157;50.082;18.178;2023-11-21T12:48:39;5.90;;;4.60;;
76336;SDS011;65157;50.082;18.178;2023-11-21T12:51:07;6.50;;;4.60;;
76336;SDS011;65157;50.082;18.178;2023-11-21T12:56:02;5.40;;;4.00;;
76336;SDS011;65157;50.082;18.178;2023-11-21T12:58:32;5.60;;;4.40;;
76336;SDS011;65157;50.082;18.178;2023-11-21T13:00:59;9.20;;;4.90;;
76336;SDS011;65157;50.082;18.178;2023-11-21T13:03:26;16.60;;;7.10;;
76336;SDS011;65157;50.082;18.178;2023-11-21T13:05:52;8.60;;;4.90;;
76336;SDS011;65157;50.082;18.178;2023-11-21T13:08:20;6.70;;;3.70;;
76336;SDS011;65157;50.082;18.178;2023-11-21T13:10:49;6.20;;;3.80;;
76336;SDS011;65157;50.082;18.178;2023-11-21T13:13:17;6.90;;;4.30;;
76336;SDS011;65157;50.082;18.178;2023-11-21T13:15:48;3.90;;;3.60;;
76336;SDS011;65157;50.082;18.178;2023-11-21T13:18:16;4.40;;;3.60;;
76336;SDS011;65157;50.082;18.178;2023-11-21T13:20:43;7.60;;;3.70;;
76336;SDS011;65157;50.082;18.178;2023-11-21T13:23:10;3.30;;;3.00;;
76336;SDS011;65157;50.082;18.178;2023-11-21T13:25:38;3.50;;;2.40;;
76336;SDS011;65157;50.082;18.178;2023-11-21T13:28:06;7.50;;;4.30;;
76336;SDS011;65157;50.082;18.178;2023-11-21T13:30:34;4.90;;;3.80;;
76336;SDS011;65157;50.082;18.178;2023-11-21T13:33:01;5.00;;;3.60;;
76336;SDS011;65157;50.082;18.178;2023-11-21T13:35:31;6.50;;;4.00;;
76336;SDS011;65157;50.082;18.178;2023-11-21T13:38:03;7.10;;;4.90;;
76336;SDS011;65157;50.082;18.178;2023-11-21T13:40:32;5.90;;;4.20;;
76336;SDS011;65157;50.082;18.178;2023-11-21T13:43:00;8.10;;;3.70;;
76336;SDS011;65157;50.082;18.178;2023-11-21T13:45:27;5.20;;;3.50;;
76336;SDS011;65157;50.082;18.178;2023-11-21T13:47:54;7.60;;;4.60;;
76336;SDS011;65157;50.082;18.178;2023-11-21T13:50:20;7.90;;;5.20;;
76336;SDS011;65157;50.082;18.178;2023-11-21T13:52:47;12.00;;;5.10;;
76336;SDS011;65157;50.082;18.178;2023-11-21T13:55:14;10.90;;;4.70;;
76336;SDS011;65157;50.082;18.178;2023-11-21T13:57:42;12.20;;;5.30;;
76336;SDS011;65157;50.082;18.178;2023-11-21T14:00:09;14.90;;;6.10;;
76336;SDS011;65157;50.082;18.178;2023-11-21T14:05:02;15.50;;;9.40;;
76336;SDS011;65157;50.082;18.178;2023-11-21T14:07:29;27.80;;;12.60;;
76336;SDS011;65157;50.082;18.178;2023-11-21T14:09:55;18.10;;;9.30;;
76336;SDS011;65157;50.082;18.178;2023-11-21T14:12:22;11.40;;;6.80;;
76336;SDS011;65157;50.082;18.178;2023-11-21T14:14:49;10.20;;;6.20;;
76336;SDS011;65157;50.082;18.178;2023-11-21T14:17:15;8.40;;;5.40;;
76336;SDS011;65157;50.082;18.178;2023-11-21T14:19:50;11.50;;;6.00;;
76336;SDS011;65157;50.082;18.178;2023-11-21T14:22:18;8.50;;;4.60;;
76336;SDS011;65157;50.082;18.178;2023-11-21T14:24:44;14.10;;;5.90;;
76336;SDS011;65157;50.082;18.178;2023-11-21T14:27:11;15.60;;;7.10;;
76336;SDS011;65157;50.082;18.178;2023-11-21T14:29:39;20.20;;;10.90;;
76336;SDS011;65157;50.082;18.178;2023-11-21T14:32:08;21.00;;;11.10;;
76336;SDS011;65157;50.082;18.178;2023-11-21T14:34:35;15.20;;;9.40;;
76336;SDS011;65157;50.082;18.178;2023-11-21T14:37:01;24.00;;;12.30;;
76336;SDS011;65157;50.082;18.178;2023-11-21T14:39:28;15.00;;;9.40;;
76336;SDS011;65157;50.082;18.178;2023-11-21T14:41:55;17.80;;;8.20;;
76336;SDS011;65157;50.082;18.178;2023-11-21T14:46:48;20.80;;;10.50;;
76336;SDS011;65157;50.082;18.178;2023-11-21T14:49:15;18.80;;;10.50;;
76336;SDS011;65157;50.082;18.178;2023-11-21T14:51:41;19.80;;;11.00;;
76336;SDS011;65157;50.082;18.178;2023-11-21T14:54:08;18.60;;;9.10;;